sensor_id;sensor_type;location;lat;lon;timestamp;P1;durP1;ratioP1;P2;durP2;ratioP2
35496;SDS011;21609;49.298;6.844;2023-01-01T00:00:09;12.20;;;11.15;;
35496;SDS011;21609;49.298;6.844;2023-01-01T00:02:36;11.25;;;10.23;;
35496;SDS011;21609;49.298;6.844;2023-01-01T00:05:02;11.98;;;11.00;;
35496;SDS011;21609;49.298;6.844;2023-01-01T00:07:28;12.18;;;11.25;;
35496;SDS011;21609;49.298;6.844;2023-01-01T00:09:54;11.38;;;10.48;;
35496;SDS011;21609;49.298;6.844;2023-01-01T00:12:38;11.55;;;10.57;;
35496;SDS011;21609;49.298;6.844;2023-01-01T00:15:04;12.05;;;11.10;;
35496;SDS011;21609;49.298;6.844;2023-01-01T00:17:30;11.48;;;10.48;;
35496;SDS011;21609;49.298;6.844;2023-01-01T00:19:55;11.70;;;10.00;;
35496;SDS011;21609;49.298;6.844;2023-01-01T00:22:21;11.65;;;10.65;;
35496;SDS011;21609;49.298;6.844;2023-01-01T00:24:46;12.30;;;11.30;;
35496;SDS011;21609;49.298;6.844;2023-01-01T00:27:12;10.85;;;9.68;;
35496;SDS011;21609;49.298;6.844;2023-01-01T00:29:38;10.73;;;9.82;;
35496;SDS011;21609;49.298;6.844;2023-01-01T00:32:03;10.93;;;10.02;;
35496;SDS011;21609;49.298;6.844;2023-01-01T00:34:29;11.70;;;10.80;;
35496;SDS011;21609;49.298;6.844;2023-01-01T00:36:55;11.07;;;10.07;;
35496;SDS011;21609;49.298;6.844;2023-01-01T00:39:22;10.63;;;9.82;;
35496;SDS011;21609;49.298;6.844;2023-01-01T00:41:47;10.88;;;9.88;;
35496;SDS011;21609;49.298;6.844;2023-01-01T00:44:13;9.95;;;9.25;;
35496;SDS011;21609;49.298;6.844;2023-01-01T00:46:39;10.07;;;9.27;;
35496;SDS011;21609;49.298;6.844;2023-01-01T00:49:04;10.10;;;9.20;;
35496;SDS011;21609;49.298;6.844;2023-01-01T00:51:30;9.60;;;8.80;;
35496;SDS011;21609;49.298;6.844;2023-01-01T00:53:55;9.63;;;8.82;;
35496;SDS011;21609;49.298;6.844;2023-01-01T00:56:21;8.75;;;8.05;;
35496;SDS011;21609;49.298;6.844;2023-01-01T00:58:47;9.80;;;9.00;;
35496;SDS011;21609;49.298;6.844;2023-01-01T01:01:13;9.77;;;8.93;;
35496;SDS011;21609;49.298;6.844;2023-01-01T01:03:38;10.07;;;9.18;;
35496;SDS011;21609;49.298;6.844;2023-01-01T01:08:32;8.25;;;7.70;;
35496;SDS011;21609;49.298;6.844;2023-01-01T01:11:05;10.00;;;9.20;;
35496;SDS011;21609;49.298;6.844;2023-01-01T01:13:52;9.77;;;8.88;;
35496;SDS011;21609;49.298;6.844;2023-01-01T01:16:23;8.80;;;8.10;;
35496;SDS011;21609;49.298;6.844;2023-01-01T01:18:53;9.48;;;8.75;;
35496;SDS011;21609;49.298;6.844;2023-01-01T01:21:21;9.32;;;8.63;;
35496;SDS011;21609;49.298;6.844;2023-01-01T01:23:48;9.18;;;8.40;;
35496;SDS011;21609;49.298;6.844;2023-01-01T01:26:16;13.80;;;8.35;;
35496;SDS011;21609;49.298;6.844;2023-01-01T01:28:44;9.20;;;8.48;;
35496;SDS011;21609;49.298;6.844;2023-01-01T01:31:10;9.10;;;8.40;;
35496;SDS011;21609;49.298;6.844;2023-01-01T01:33:36;9.32;;;8.63;;
35496;SDS011;21609;49.298;6.844;2023-01-01T01:36:03;9.05;;;8.23;;
35496;SDS011;21609;49.298;6.844;2023-01-01T01:38:29;9.23;;;8.45;;
35496;SDS011;21609;49.298;6.844;2023-01-01T01:40:55;9.02;;;8.30;;
35496;SDS011;21609;49.298;6.844;2023-01-01T01:43:23;8.88;;;8.13;;
35496;SDS011;21609;49.298;6.844;2023-01-01T01:46:09;8.73;;;8.02;;
35496;SDS011;21609;49.298;6.844;2023-01-01T01:48:43;9.77;;;8.73;;
35496;SDS011;21609;49.298;6.844;2023-01-01T01:51:14;8.48;;;7.88;;
35496;SDS011;21609;49.298;6.844;2023-01-01T01:53:44;8.98;;;8.27;;
35496;SDS011;21609;49.298;6.844;2023-01-01T01:56:14;7.63;;;7.03;;
35496;SDS011;21609;49.298;6.844;2023-01-01T01:58:44;8.40;;;7.68;;
35496;SDS011;21609;49.298;6.844;2023-01-01T02:01:09;9.57;;;8.88;;
35496;SDS011;21609;49.298;6.844;2023-01-01T02:03:43;8.32;;;7.65;;
35496;SDS011;21609;49.298;6.844;2023-01-01T02:06:17;8.43;;;7.82;;
35496;SDS011;21609;49.298;6.844;2023-01-01T02:08:43;8.82;;;8.23;;
35496;SDS011;21609;49.298;6.844;2023-01-01T02:11:09;9.32;;;8.52;;
35496;SDS011;21609;49.298;6.844;2023-01-01T02:13:35;8.00;;;7.40;;
35496;SDS011;21609;49.298;6.844;2023-01-01T02:18:53;8.65;;;7.95;;
35496;SDS011;21609;49.298;6.844;2023-01-01T02:21:34;8.18;;;7.57;;
35496;SDS011;21609;49.298;6.844;2023-01-01T02:24:35;8.27;;;7.68;;
35496;SDS011;21609;49.298;6.844;2023-01-01T02:27:18;8.00;;;7.40;;
35496;SDS011;21609;49.298;6.844;2023-01-01T02:30:03;8.38;;;7.78;;
35496;SDS011;21609;49.298;6.844;2023-01-01T02:35:02;7.90;;;7.22;;
35496;SDS011;21609;49.298;6.844;2023-01-01T02:37:52;7.72;;;7.13;;
35496;SDS011;21609;49.298;6.844;2023-01-01T02:40:22;7.95;;;7.35;;
35496;SDS011;21609;49.298;6.844;2023-01-01T02:42:49;7.90;;;7.30;;
35496;SDS011;21609;49.298;6.844;2023-01-01T02:45:15;8.07;;;7.25;;
35496;SDS011;21609;49.298;6.844;2023-01-01T02:47:41;8.20;;;7.50;;
35496;SDS011;21609;49.298;6.844;2023-01-01T02:52:53;6.82;;;6.32;;
35496;SDS011;21609;49.298;6.844;2023-01-01T03:04:16;7.03;;;6.53;;
35496;SDS011;21609;49.298;6.844;2023-01-01T03:07:10;8.07;;;7.32;;
35496;SDS011;21609;49.298;6.844;2023-01-01T03:12:30;7.07;;;6.57;;
35496;SDS011;21609;49.298;6.844;2023-01-01T03:18:00;7.40;;;6.35;;
35496;SDS011;21609;49.298;6.844;2023-01-01T03:20:31;7.10;;;6.60;;
35496;SDS011;21609;49.298;6.844;2023-01-01T03:23:05;6.85;;;6.35;;
35496;SDS011;21609;49.298;6.844;2023-01-01T03:25:35;6.65;;;6.15;;
35496;SDS011;21609;49.298;6.844;2023-01-01T03:28:06;7.25;;;6.65;;
35496;SDS011;21609;49.298;6.844;2023-01-01T03:30:36;6.28;;;5.80;;
35496;SDS011;21609;49.298;6.844;2023-01-01T03:33:07;6.97;;;5.97;;
35496;SDS011;21609;49.298;6.844;2023-01-01T03:36:26;6.40;;;5.88;;
35496;SDS011;21609;49.298;6.844;2023-01-01T03:38:53;7.22;;;6.63;;
35496;SDS011;21609;49.298;6.844;2023-01-01T03:41:25;6.25;;;5.75;;
35496;SDS011;21609;49.298;6.844;2023-01-01T03:44:10;6.82;;;6.30;;
35496;SDS011;21609;49.298;6.844;2023-01-01T03:46:59;6.60;;;6.07;;
35496;SDS011;21609;49.298;6.844;2023-01-01T03:49:25;6.90;;;6.20;;
35496;SDS011;21609;49.298;6.844;2023-01-01T04:02:34;6.93;;;6.43;;
35496;SDS011;21609;49.298;6.844;2023-01-01T04:05:04;6.60;;;6.10;;
35496;SDS011;21609;49.298;6.844;2023-01-01T04:07:34;6.93;;;6.32;;
35496;SDS011;21609;49.298;6.844;2023-01-01T04:10:00;6.60;;;6.00;;
35496;SDS011;21609;49.298;6.844;2023-01-01T04:12:27;7.05;;;6.47;;
35496;SDS011;21609;49.298;6.844;2023-01-01T04:14:54;6.32;;;5.82;;
35496;SDS011;21609;49.298;6.844;2023-01-01T04:17:19;6.20;;;5.80;;
35496;SDS011;21609;49.298;6.844;2023-01-01T04:19:45;6.20;;;5.70;;
35496;SDS011;21609;49.298;6.844;2023-01-01T04:22:11;6.88;;;6.32;;
35496;SDS011;21609;49.298;6.844;2023-01-01T04:24:36;6.40;;;5.85;;
35496;SDS011;21609;49.298;6.844;2023-01-01T04:27:02;5.65;;;5.15;;
35496;SDS011;21609;49.298;6.844;2023-01-01T04:29:28;6.10;;;5.70;;
35496;SDS011;21609;49.298;6.844;2023-01-01T04:31:53;6.97;;;6.47;;
35496;SDS011;21609;49.298;6.844;2023-01-01T04:34:19;6.10;;;5.60;;
35496;SDS011;21609;49.298;6.844;2023-01-01T04:36:45;6.30;;;5.80;;
35496;SDS011;21609;49.298;6.844;2023-01-01T04:39:10;6.72;;;6.18;;
35496;SDS011;21609;49.298;6.844;2023-01-01T04:41:36;5.55;;;5.15;;
35496;SDS011;21609;49.298;6.844;2023-01-01T04:44:01;5.70;;;5.30;;
35496;SDS011;21609;49.298;6.844;2023-01-01T04:46:27;5.97;;;5.50;;
35496;SDS011;21609;49.298;6.844;2023-01-01T04:48:53;6.50;;;6.00;;
35496;SDS011;21609;49.298;6.844;2023-01-01T04:51:19;5.60;;;5.10;;
35496;SDS011;21609;49.298;6.844;2023-01-01T04:53:45;5.43;;;5.03;;
35496;SDS011;21609;49.298;6.844;2023-01-01T04:56:18;5.68;;;5.28;;
35496;SDS011;21609;49.298;6.844;2023-01-01T04:58:45;6.40;;;5.88;;
35496;SDS011;21609;49.298;6.844;2023-01-01T05:01:22;5.22;;;4.82;;
35496;SDS011;21609;49.298;6.844;2023-01-01T05:03:50;5.68;;;5.28;;
35496;SDS011;21609;49.298;6.844;2023-01-01T05:06:16;6.63;;;6.13;;
35496;SDS011;21609;49.298;6.844;2023-01-01T05:08:43;5.63;;;5.07;;
35496;SDS011;21609;49.298;6.844;2023-01-01T05:11:11;5.63;;;5.22;;
35496;SDS011;21609;49.298;6.844;2023-01-01T05:13:40;5.75;;;5.35;;
35496;SDS011;21609;49.298;6.844;2023-01-01T05:16:08;6.35;;;5.78;;
35496;SDS011;21609;49.298;6.844;2023-01-01T05:18:36;5.70;;;5.30;;
35496;SDS011;21609;49.298;6.844;2023-01-01T05:21:27;5.70;;;5.20;;
35496;SDS011;21609;49.298;6.844;2023-01-01T05:23:53;5.82;;;5.43;;
35496;SDS011;21609;49.298;6.844;2023-01-01T05:26:20;5.47;;;5.07;;
35496;SDS011;21609;49.298;6.844;2023-01-01T05:28:48;5.63;;;5.13;;
35496;SDS011;21609;49.298;6.844;2023-01-01T05:31:18;5.20;;;4.80;;
35496;SDS011;21609;49.298;6.844;2023-01-01T05:33:45;5.65;;;5.25;;
35496;SDS011;21609;49.298;6.844;2023-01-01T05:36:13;6.15;;;5.65;;
35496;SDS011;21609;49.298;6.844;2023-01-01T05:38:40;5.63;;;5.20;;
35496;SDS011;21609;49.298;6.844;2023-01-01T05:41:06;5.40;;;5.00;;
35496;SDS011;21609;49.298;6.844;2023-01-01T05:43:33;5.40;;;5.00;;
35496;SDS011;21609;49.298;6.844;2023-01-01T05:46:03;5.78;;;5.38;;
35496;SDS011;21609;49.298;6.844;2023-01-01T05:48:31;4.60;;;4.30;;
35496;SDS011;21609;49.298;6.844;2023-01-01T05:51:04;5.05;;;4.65;;
35496;SDS011;21609;49.298;6.844;2023-01-01T05:53:35;5.25;;;4.85;;
35496;SDS011;21609;49.298;6.844;2023-01-01T05:56:01;4.53;;;4.20;;
35496;SDS011;21609;49.298;6.844;2023-01-01T05:58:27;4.97;;;4.60;;
35496;SDS011;21609;49.298;6.844;2023-01-01T06:00:54;5.30;;;4.80;;
35496;SDS011;21609;49.298;6.844;2023-01-01T06:03:20;5.28;;;4.85;;
35496;SDS011;21609;49.298;6.844;2023-01-01T06:05:46;4.93;;;4.57;;
35496;SDS011;21609;49.298;6.844;2023-01-01T06:08:12;5.13;;;4.72;;
35496;SDS011;21609;49.298;6.844;2023-01-01T06:10:38;4.88;;;4.57;;
35496;SDS011;21609;49.298;6.844;2023-01-01T06:13:04;4.90;;;4.50;;
35496;SDS011;21609;49.298;6.844;2023-01-01T06:15:30;4.40;;;4.10;;
35496;SDS011;21609;49.298;6.844;2023-01-01T06:17:56;5.18;;;4.78;;
35496;SDS011;21609;49.298;6.844;2023-01-01T06:20:23;4.43;;;4.13;;
35496;SDS011;21609;49.298;6.844;2023-01-01T06:22:48;4.90;;;4.50;;
35496;SDS011;21609;49.298;6.844;2023-01-01T06:25:14;4.80;;;4.40;;
35496;SDS011;21609;49.298;6.844;2023-01-01T06:27:40;4.97;;;4.57;;
35496;SDS011;21609;49.298;6.844;2023-01-01T06:30:06;4.60;;;4.30;;
35496;SDS011;21609;49.298;6.844;2023-01-01T06:32:32;4.78;;;4.00;;
35496;SDS011;21609;49.298;6.844;2023-01-01T06:34:58;4.55;;;4.15;;
35496;SDS011;21609;49.298;6.844;2023-01-01T06:37:23;4.50;;;4.10;;
35496;SDS011;21609;49.298;6.844;2023-01-01T06:39:49;4.72;;;4.32;;
35496;SDS011;21609;49.298;6.844;2023-01-01T06:42:15;4.32;;;3.92;;
35496;SDS011;21609;49.298;6.844;2023-01-01T06:44:41;4.43;;;4.13;;
35496;SDS011;21609;49.298;6.844;2023-01-01T06:47:06;4.28;;;3.97;;
35496;SDS011;21609;49.298;6.844;2023-01-01T06:49:32;4.15;;;3.85;;
35496;SDS011;21609;49.298;6.844;2023-01-01T06:51:58;4.82;;;4.43;;
35496;SDS011;21609;49.298;6.844;2023-01-01T06:54:23;4.43;;;4.13;;
35496;SDS011;21609;49.298;6.844;2023-01-01T06:56:49;4.38;;;4.07;;
35496;SDS011;21609;49.298;6.844;2023-01-01T06:59:15;3.80;;;3.50;;
35496;SDS011;21609;49.298;6.844;2023-01-01T07:01:42;4.68;;;4.28;;
35496;SDS011;21609;49.298;6.844;2023-01-01T07:04:11;4.60;;;4.20;;
35496;SDS011;21609;49.298;6.844;2023-01-01T07:06:39;4.25;;;3.90;;
35496;SDS011;21609;49.298;6.844;2023-01-01T07:09:05;4.22;;;3.85;;
35496;SDS011;21609;49.298;6.844;2023-01-01T07:11:31;4.32;;;4.03;;
35496;SDS011;21609;49.298;6.844;2023-01-01T07:13:57;4.05;;;3.75;;
35496;SDS011;21609;49.298;6.844;2023-01-01T07:16:23;4.10;;;3.80;;
35496;SDS011;21609;49.298;6.844;2023-01-01T07:18:49;4.38;;;4.07;;
35496;SDS011;21609;49.298;6.844;2023-01-01T07:21:31;3.78;;;3.58;;
35496;SDS011;21609;49.298;6.844;2023-01-01T07:24:01;4.32;;;4.00;;
35496;SDS011;21609;49.298;6.844;2023-01-01T07:26:28;4.00;;;3.70;;
35496;SDS011;21609;49.298;6.844;2023-01-01T07:28:55;4.07;;;3.78;;
35496;SDS011;21609;49.298;6.844;2023-01-01T07:31:21;4.40;;;3.90;;
35496;SDS011;21609;49.298;6.844;2023-01-01T07:33:47;3.63;;;3.42;;
35496;SDS011;21609;49.298;6.844;2023-01-01T07:36:12;3.97;;;3.67;;
35496;SDS011;21609;49.298;6.844;2023-01-01T07:38:38;4.03;;;3.60;;
35496;SDS011;21609;49.298;6.844;2023-01-01T07:41:04;10.15;;;4.07;;
35496;SDS011;21609;49.298;6.844;2023-01-01T07:43:29;5.30;;;3.58;;
35496;SDS011;21609;49.298;6.844;2023-01-01T07:45:56;6.05;;;2.92;;
35496;SDS011;21609;49.298;6.844;2023-01-01T07:48:23;4.43;;;3.45;;
35496;SDS011;21609;49.298;6.844;2023-01-01T07:50:49;7.82;;;3.58;;
35496;SDS011;21609;49.298;6.844;2023-01-01T07:53:15;5.78;;;3.60;;
35496;SDS011;21609;49.298;6.844;2023-01-01T07:55:41;3.70;;;3.03;;
35496;SDS011;21609;49.298;6.844;2023-01-01T07:58:07;7.07;;;3.53;;
35496;SDS011;21609;49.298;6.844;2023-01-01T08:00:33;4.68;;;3.40;;
35496;SDS011;21609;49.298;6.844;2023-01-01T08:02:59;3.75;;;3.42;;
35496;SDS011;21609;49.298;6.844;2023-01-01T08:05:25;2.90;;;2.70;;
35496;SDS011;21609;49.298;6.844;2023-01-01T08:07:50;3.47;;;2.65;;
35496;SDS011;21609;49.298;6.844;2023-01-01T08:10:17;7.55;;;3.00;;
35496;SDS011;21609;49.298;6.844;2023-01-01T08:12:44;4.22;;;2.80;;
35496;SDS011;21609;49.298;6.844;2023-01-01T08:15:10;3.85;;;2.85;;
35496;SDS011;21609;49.298;6.844;2023-01-01T08:17:36;5.80;;;3.42;;
35496;SDS011;21609;49.298;6.844;2023-01-01T08:20:01;3.70;;;3.30;;
35496;SDS011;21609;49.298;6.844;2023-01-01T08:22:28;5.40;;;3.03;;
35496;SDS011;21609;49.298;6.844;2023-01-01T08:24:53;2.95;;;2.65;;
35496;SDS011;21609;49.298;6.844;2023-01-01T08:27:19;3.25;;;2.95;;
35496;SDS011;21609;49.298;6.844;2023-01-01T08:29:44;2.70;;;2.33;;
35496;SDS011;21609;49.298;6.844;2023-01-01T08:32:10;2.53;;;2.33;;
35496;SDS011;21609;49.298;6.844;2023-01-01T08:34:36;3.17;;;2.95;;
35496;SDS011;21609;49.298;6.844;2023-01-01T08:37:02;5.10;;;3.38;;
35496;SDS011;21609;49.298;6.844;2023-01-01T08:39:28;3.08;;;2.78;;
35496;SDS011;21609;49.298;6.844;2023-01-01T08:41:53;3.33;;;2.40;;
35496;SDS011;21609;49.298;6.844;2023-01-01T08:44:19;6.20;;;3.00;;
35496;SDS011;21609;49.298;6.844;2023-01-01T08:46:45;4.57;;;3.20;;
35496;SDS011;21609;49.298;6.844;2023-01-01T08:49:10;3.75;;;2.65;;
35496;SDS011;21609;49.298;6.844;2023-01-01T08:51:36;3.30;;;3.00;;
35496;SDS011;21609;49.298;6.844;2023-01-01T08:54:02;3.42;;;2.80;;
35496;SDS011;21609;49.298;6.844;2023-01-01T08:56:27;3.00;;;2.70;;
35496;SDS011;21609;49.298;6.844;2023-01-01T08:58:53;4.07;;;2.80;;
35496;SDS011;21609;49.298;6.844;2023-01-01T09:01:19;3.17;;;2.28;;
35496;SDS011;21609;49.298;6.844;2023-01-01T09:03:50;2.60;;;2.40;;
35496;SDS011;21609;49.298;6.844;2023-01-01T09:06:15;6.85;;;2.55;;
35496;SDS011;21609;49.298;6.844;2023-01-01T09:08:41;3.33;;;2.70;;
35496;SDS011;21609;49.298;6.844;2023-01-01T09:11:07;5.22;;;2.25;;
35496;SDS011;21609;49.298;6.844;2023-01-01T09:13:43;2.85;;;2.45;;
35496;SDS011;21609;49.298;6.844;2023-01-01T09:16:09;3.13;;;2.33;;
35496;SDS011;21609;49.298;6.844;2023-01-01T09:18:34;3.80;;;2.10;;
35496;SDS011;21609;49.298;6.844;2023-01-01T09:21:00;2.78;;;2.03;;
35496;SDS011;21609;49.298;6.844;2023-01-01T09:23:25;3.05;;;2.35;;
35496;SDS011;21609;49.298;6.844;2023-01-01T09:25:51;2.42;;;2.20;;
35496;SDS011;21609;49.298;6.844;2023-01-01T09:28:16;3.80;;;2.20;;
35496;SDS011;21609;49.298;6.844;2023-01-01T09:30:42;6.25;;;2.35;;
35496;SDS011;21609;49.298;6.844;2023-01-01T09:33:08;2.58;;;2.38;;
35496;SDS011;21609;49.298;6.844;2023-01-01T09:35:33;3.08;;;2.08;;
35496;SDS011;21609;49.298;6.844;2023-01-01T09:38:00;2.03;;;1.90;;
35496;SDS011;21609;49.298;6.844;2023-01-01T09:45:54;2.95;;;2.53;;
35496;SDS011;21609;49.298;6.844;2023-01-01T09:48:22;5.07;;;2.85;;
35496;SDS011;21609;49.298;6.844;2023-01-01T09:50:50;2.85;;;2.47;;
35496;SDS011;21609;49.298;6.844;2023-01-01T09:53:27;3.03;;;2.47;;
35496;SDS011;21609;49.298;6.844;2023-01-01T09:56:28;6.03;;;2.78;;
35496;SDS011;21609;49.298;6.844;2023-01-01T09:58:56;2.80;;;2.58;;
35496;SDS011;21609;49.298;6.844;2023-01-01T10:01:38;2.90;;;2.55;;
35496;SDS011;21609;49.298;6.844;2023-01-01T10:04:38;2.97;;;2.28;;
35496;SDS011;21609;49.298;6.844;2023-01-01T10:07:11;3.05;;;2.20;;
35496;SDS011;21609;49.298;6.844;2023-01-01T10:09:49;2.80;;;2.13;;
35496;SDS011;21609;49.298;6.844;2023-01-01T10:15:09;2.60;;;2.40;;
35496;SDS011;21609;49.298;6.844;2023-01-01T10:17:47;4.10;;;2.38;;
35496;SDS011;21609;49.298;6.844;2023-01-01T10:20:23;2.08;;;1.98;;
35496;SDS011;21609;49.298;6.844;2023-01-01T10:23:00;4.30;;;2.85;;
35496;SDS011;21609;49.298;6.844;2023-01-01T10:25:53;3.08;;;2.30;;
35496;SDS011;21609;49.298;6.844;2023-01-01T10:28:23;3.08;;;2.00;;
35496;SDS011;21609;49.298;6.844;2023-01-01T10:31:13;3.70;;;2.33;;
35496;SDS011;21609;49.298;6.844;2023-01-01T10:33:39;2.67;;;2.47;;
35496;SDS011;21609;49.298;6.844;2023-01-01T10:36:05;2.95;;;2.05;;
35496;SDS011;21609;49.298;6.844;2023-01-01T10:38:34;2.40;;;1.58;;
35496;SDS011;21609;49.298;6.844;2023-01-01T10:41:07;3.08;;;1.83;;
35496;SDS011;21609;49.298;6.844;2023-01-01T10:43:34;3.40;;;2.17;;
35496;SDS011;21609;49.298;6.844;2023-01-01T10:46:00;4.65;;;2.25;;
35496;SDS011;21609;49.298;6.844;2023-01-01T10:48:28;2.72;;;2.28;;
35496;SDS011;21609;49.298;6.844;2023-01-01T10:50:55;3.90;;;2.53;;
35496;SDS011;21609;49.298;6.844;2023-01-01T10:55:57;2.75;;;1.98;;
35496;SDS011;21609;49.298;6.844;2023-01-01T11:01:01;3.38;;;2.75;;
35496;SDS011;21609;49.298;6.844;2023-01-01T11:03:28;3.10;;;2.78;;
35496;SDS011;21609;49.298;6.844;2023-01-01T11:06:05;2.35;;;2.10;;
35496;SDS011;21609;49.298;6.844;2023-01-01T11:08:40;6.68;;;2.70;;
35496;SDS011;21609;49.298;6.844;2023-01-01T11:11:18;5.00;;;2.45;;
35496;SDS011;21609;49.298;6.844;2023-01-01T11:13:49;3.25;;;2.17;;
35496;SDS011;21609;49.298;6.844;2023-01-01T11:16:16;2.50;;;2.30;;
35496;SDS011;21609;49.298;6.844;2023-01-01T11:18:42;5.20;;;2.30;;
35496;SDS011;21609;49.298;6.844;2023-01-01T11:21:08;2.47;;;2.15;;
35496;SDS011;21609;49.298;6.844;2023-01-01T11:23:34;3.28;;;2.75;;
35496;SDS011;21609;49.298;6.844;2023-01-01T11:29:01;3.90;;;1.98;;
35496;SDS011;21609;49.298;6.844;2023-01-01T11:31:46;2.15;;;1.95;;
35496;SDS011;21609;49.298;6.844;2023-01-01T11:37:07;4.57;;;2.13;;
35496;SDS011;21609;49.298;6.844;2023-01-01T11:39:33;2.80;;;2.20;;
35496;SDS011;21609;49.298;6.844;2023-01-01T11:42:01;3.05;;;2.15;;
35496;SDS011;21609;49.298;6.844;2023-01-01T11:44:33;3.05;;;1.80;;
35496;SDS011;21609;49.298;6.844;2023-01-01T11:50:05;2.72;;;2.47;;
35496;SDS011;21609;49.298;6.844;2023-01-01T11:52:46;3.17;;;2.22;;
35496;SDS011;21609;49.298;6.844;2023-01-01T12:00:58;2.72;;;2.30;;
35496;SDS011;21609;49.298;6.844;2023-01-01T12:06:05;3.58;;;2.38;;
35496;SDS011;21609;49.298;6.844;2023-01-01T12:09:23;2.90;;;1.75;;
35496;SDS011;21609;49.298;6.844;2023-01-01T12:11:40;2.92;;;1.88;;
35496;SDS011;21609;49.298;6.844;2023-01-01T12:17:09;4.05;;;2.22;;
35496;SDS011;21609;49.298;6.844;2023-01-01T12:19:54;2.65;;;2.17;;
35496;SDS011;21609;49.298;6.844;2023-01-01T12:22:25;2.20;;;1.80;;
35496;SDS011;21609;49.298;6.844;2023-01-01T12:24:50;4.57;;;1.90;;
35496;SDS011;21609;49.298;6.844;2023-01-01T12:30:09;2.97;;;2.13;;
35496;SDS011;21609;49.298;6.844;2023-01-01T12:32:54;3.33;;;2.55;;
35496;SDS011;21609;49.298;6.844;2023-01-01T12:41:26;2.25;;;2.05;;
35496;SDS011;21609;49.298;6.844;2023-01-01T12:52:29;2.53;;;2.22;;
35496;SDS011;21609;49.298;6.844;2023-01-01T13:00:20;8.40;;;2.88;;
35496;SDS011;21609;49.298;6.844;2023-01-01T13:02:49;5.75;;;3.15;;
35496;SDS011;21609;49.298;6.844;2023-01-01T13:05:23;5.00;;;2.80;;
35496;SDS011;21609;49.298;6.844;2023-01-01T13:08:02;21.15;;;3.72;;
35496;SDS011;21609;49.298;6.844;2023-01-01T13:10:33;3.97;;;3.03;;
35496;SDS011;21609;49.298;6.844;2023-01-01T13:13:02;3.42;;;3.03;;
35496;SDS011;21609;49.298;6.844;2023-01-01T13:15:50;10.50;;;3.78;;
35496;SDS011;21609;49.298;6.844;2023-01-01T13:20:44;3.42;;;2.28;;
35496;SDS011;21609;49.298;6.844;2023-01-01T13:51:08;5.88;;;2.40;;
35496;SDS011;21609;49.298;6.844;2023-01-01T14:04:14;2.45;;;2.20;;
35496;SDS011;21609;49.298;6.844;2023-01-01T14:06:51;3.35;;;2.50;;
35496;SDS011;21609;49.298;6.844;2023-01-01T14:09:19;3.75;;;2.25;;
35496;SDS011;21609;49.298;6.844;2023-01-01T14:11:45;3.65;;;2.65;;
35496;SDS011;21609;49.298;6.844;2023-01-01T14:14:24;2.40;;;2.20;;
35496;SDS011;21609;49.298;6.844;2023-01-01T14:16:58;3.55;;;2.72;;
35496;SDS011;21609;49.298;6.844;2023-01-01T14:19:25;5.72;;;2.47;;
35496;SDS011;21609;49.298;6.844;2023-01-01T14:21:52;6.72;;;2.65;;
35496;SDS011;21609;49.298;6.844;2023-01-01T14:24:19;3.88;;;2.58;;
35496;SDS011;21609;49.298;6.844;2023-01-01T14:26:46;3.67;;;2.50;;
35496;SDS011;21609;49.298;6.844;2023-01-01T14:29:21;3.55;;;2.95;;
35496;SDS011;21609;49.298;6.844;2023-01-01T14:31:54;4.38;;;2.58;;
35496;SDS011;21609;49.298;6.844;2023-01-01T14:34:26;3.35;;;2.63;;
35496;SDS011;21609;49.298;6.844;2023-01-01T14:36:57;2.00;;;1.80;;
35496;SDS011;21609;49.298;6.844;2023-01-01T14:39:25;2.90;;;2.35;;
35496;SDS011;21609;49.298;6.844;2023-01-01T14:41:53;3.67;;;2.45;;
35496;SDS011;21609;49.298;6.844;2023-01-01T14:44:23;3.65;;;2.67;;
35496;SDS011;21609;49.298;6.844;2023-01-01T14:46:56;2.25;;;2.05;;
35496;SDS011;21609;49.298;6.844;2023-01-01T14:49:24;4.20;;;2.40;;
35496;SDS011;21609;49.298;6.844;2023-01-01T14:51:57;2.78;;;2.58;;
35496;SDS011;21609;49.298;6.844;2023-01-01T14:54:30;4.35;;;2.45;;
35496;SDS011;21609;49.298;6.844;2023-01-01T14:57:01;3.30;;;2.65;;
35496;SDS011;21609;49.298;6.844;2023-01-01T14:59:28;3.47;;;2.13;;
35496;SDS011;21609;49.298;6.844;2023-01-01T15:01:59;2.08;;;1.80;;
35496;SDS011;21609;49.298;6.844;2023-01-01T15:04:28;2.50;;;2.30;;
35496;SDS011;21609;49.298;6.844;2023-01-01T15:06:54;3.55;;;2.25;;
35496;SDS011;21609;49.298;6.844;2023-01-01T15:09:21;3.38;;;1.90;;
35496;SDS011;21609;49.298;6.844;2023-01-01T15:11:49;2.95;;;2.03;;
35496;SDS011;21609;49.298;6.844;2023-01-01T15:14:51;4.27;;;2.40;;
35496;SDS011;21609;49.298;6.844;2023-01-01T15:17:12;2.55;;;1.98;;
35496;SDS011;21609;49.298;6.844;2023-01-01T15:19:40;4.00;;;2.28;;
35496;SDS011;21609;49.298;6.844;2023-01-01T15:22:08;4.53;;;2.58;;
35496;SDS011;21609;49.298;6.844;2023-01-01T15:24:46;3.05;;;1.85;;
35496;SDS011;21609;49.298;6.844;2023-01-01T15:27:20;7.03;;;2.25;;
35496;SDS011;21609;49.298;6.844;2023-01-01T15:29:52;6.03;;;2.35;;
35496;SDS011;21609;49.298;6.844;2023-01-01T15:32:24;2.25;;;2.05;;
35496;SDS011;21609;49.298;6.844;2023-01-01T15:34:56;2.40;;;1.77;;
35496;SDS011;21609;49.298;6.844;2023-01-01T15:37:47;2.83;;;2.10;;
35496;SDS011;21609;49.298;6.844;2023-01-01T15:43:07;2.92;;;2.38;;
35496;SDS011;21609;49.298;6.844;2023-01-01T15:45:31;4.65;;;2.17;;
35496;SDS011;21609;49.298;6.844;2023-01-01T15:50:30;3.25;;;2.50;;
35496;SDS011;21609;49.298;6.844;2023-01-01T15:53:02;1.65;;;1.40;;
35496;SDS011;21609;49.298;6.844;2023-01-01T15:55:34;2.78;;;2.08;;
35496;SDS011;21609;49.298;6.844;2023-01-01T15:58:06;2.70;;;2.50;;
35496;SDS011;21609;49.298;6.844;2023-01-01T16:00:39;3.63;;;2.10;;
35496;SDS011;21609;49.298;6.844;2023-01-01T16:03:14;2.88;;;2.20;;
35496;SDS011;21609;49.298;6.844;2023-01-01T16:05:45;2.67;;;1.73;;
35496;SDS011;21609;49.298;6.844;2023-01-01T16:08:13;5.50;;;2.38;;
35496;SDS011;21609;49.298;6.844;2023-01-01T16:10:39;2.88;;;2.00;;
35496;SDS011;21609;49.298;6.844;2023-01-01T16:13:04;2.75;;;2.33;;
35496;SDS011;21609;49.298;6.844;2023-01-01T16:15:30;3.40;;;2.45;;
35496;SDS011;21609;49.298;6.844;2023-01-01T16:17:55;2.92;;;1.88;;
35496;SDS011;21609;49.298;6.844;2023-01-01T16:20:21;2.25;;;2.05;;
35496;SDS011;21609;49.298;6.844;2023-01-01T16:22:47;3.90;;;1.67;;
35496;SDS011;21609;49.298;6.844;2023-01-01T16:25:13;3.05;;;2.17;;
35496;SDS011;21609;49.298;6.844;2023-01-01T16:27:41;2.35;;;1.88;;
35496;SDS011;21609;49.298;6.844;2023-01-01T16:30:07;2.35;;;1.70;;
35496;SDS011;21609;49.298;6.844;2023-01-01T16:32:33;3.35;;;2.35;;
35496;SDS011;21609;49.298;6.844;2023-01-01T16:34:58;2.25;;;2.03;;
35496;SDS011;21609;49.298;6.844;2023-01-01T16:37:24;3.47;;;2.38;;
35496;SDS011;21609;49.298;6.844;2023-01-01T16:39:50;1.50;;;1.40;;
35496;SDS011;21609;49.298;6.844;2023-01-01T16:42:15;3.28;;;1.77;;
35496;SDS011;21609;49.298;6.844;2023-01-01T16:44:41;1.85;;;1.60;;
35496;SDS011;21609;49.298;6.844;2023-01-01T16:47:07;2.80;;;2.20;;
35496;SDS011;21609;49.298;6.844;2023-01-01T16:49:33;3.08;;;2.22;;
35496;SDS011;21609;49.298;6.844;2023-01-01T16:51:59;3.78;;;2.08;;
35496;SDS011;21609;49.298;6.844;2023-01-01T16:54:27;2.22;;;1.85;;
35496;SDS011;21609;49.298;6.844;2023-01-01T16:56:53;2.00;;;1.80;;
35496;SDS011;21609;49.298;6.844;2023-01-01T16:59:18;4.72;;;2.13;;
35496;SDS011;21609;49.298;6.844;2023-01-01T17:01:44;2.50;;;2.22;;
35496;SDS011;21609;49.298;6.844;2023-01-01T17:04:10;3.03;;;1.88;;
35496;SDS011;21609;49.298;6.844;2023-01-01T17:06:39;1.98;;;1.83;;
35496;SDS011;21609;49.298;6.844;2023-01-01T17:09:05;2.22;;;2.00;;
35496;SDS011;21609;49.298;6.844;2023-01-01T17:11:31;3.13;;;2.22;;
35496;SDS011;21609;49.298;6.844;2023-01-01T17:13:58;2.63;;;1.88;;
35496;SDS011;21609;49.298;6.844;2023-01-01T17:16:24;2.75;;;2.08;;